Time;durP1;ratioP1;P1;durP2;ratioP2;P2;SDS_P1;SDS_P2;PMS_P1;PMS_P2;Temp;Humidity;BMP_temperature;BMP_pressure;BME280_temperature;BME280_humidity;BME280_pressure;Samples;Min_cycle;Max_cycle;Signal;HPM_P1;HPM_P2
2021/12/10 00:00:10;;;;;;;6.17;2.20;;;2.00;1.00;;;;;;4991529;28;20240;-76
2021/12/10 00:02:38;;;;;;;6.53;2.63;;;2.00;1.00;;;;;;4992690;28;20189;-76
2021/12/10 00:05:06;;;;;;;7.33;2.97;;;2.00;1.00;;;;;;4992369;28;20276;-78
2021/12/10 00:07:32;;;;;;;4.57;2.47;;;2.00;1.00;;;;;;4992204;28;20217;-80
2021/12/10 00:10:02;;;;;;;8.70;3.03;;;2.00;1.00;;;;;;4991683;28;20208;-77
2021/12/10 00:12:33;;;;;;;5.80;2.50;;;1.90;1.00;;;;;;4992316;28;20224;-78
2021/12/10 00:14:59;;;;;;;6.23;2.73;;;2.00;1.00;;;;;;4992567;28;20185;-77
2021/12/10 00:17:24;;;;;;;8.03;2.90;;;1.90;1.00;;;;;;4992570;28;20533;-79
2021/12/10 00:19:56;;;;;;;6.87;2.80;;;1.70;1.00;;;;;;4991395;28;20228;-78
2021/12/10 00:22:35;;;;;;;5.50;2.43;;;1.60;1.00;;;;;;4991771;28;20547;-77
2021/12/10 00:25:01;;;;;;;10.10;3.63;;;1.60;1.00;;;;;;4991809;28;20181;-78
2021/12/10 00:27:32;;;;;;;6.10;2.50;;;1.60;1.00;;;;;;4991270;28;20656;-79
2021/12/10 00:30:07;;;;;;;4.80;2.23;;;1.60;1.00;;;;;;4995206;28;20205;-77
2021/12/10 00:32:43;;;;;;;7.40;2.50;;;1.50;1.00;;;;;;4995725;28;20177;-76
2021/12/10 00:35:21;;;;;;;5.03;2.50;;;1.30;1.00;;;;;;4995615;28;20197;-78
2021/12/10 00:37:47;;;;;;;4.67;2.73;;;1.30;1.00;;;;;;4995528;28;20181;-78
2021/12/10 00:40:14;;;;;;;5.97;2.60;;;1.30;1.00;;;;;;4995265;28;20666;-78
2021/12/10 00:42:40;;;;;;;4.87;2.37;;;1.20;1.00;;;;;;4995280;28;20186;-78
2021/12/10 00:45:11;;;;;;;6.13;2.43;;;1.20;1.00;;;;;;4995464;28;20261;-77
2021/12/10 00:47:37;;;;;;;7.30;2.33;;;1.20;1.00;;;;;;4994984;28;20195;-79
2021/12/10 00:50:08;;;;;;;6.30;2.80;;;1.10;1.00;;;;;;4994317;28;20194;-78
2021/12/10 00:52:34;;;;;;;4.40;2.17;;;1.10;1.00;;;;;;4995044;28;20540;-78
2021/12/10 00:54:59;;;;;;;8.80;2.10;;;1.00;1.00;;;;;;4995100;28;20181;-78
2021/12/10 00:57:25;;;;;;;5.17;2.30;;;1.00;1.00;;;;;;4995218;28;20256;-77
2021/12/10 00:59:51;;;;;;;7.13;2.07;;;1.00;1.00;;;;;;4994358;28;20668;-77
2021/12/10 01:02:20;;;;;;;6.37;2.20;;;0.90;1.00;;;;;;4994876;28;20178;-78
2021/12/10 01:04:49;;;;;;;5.50;2.50;;;0.90;1.00;;;;;;4994720;28;20182;-79
2021/12/10 01:07:19;;;;;;;7.03;2.53;;;0.90;1.00;;;;;;4994782;28;20256;-78
2021/12/10 01:09:48;;;;;;;9.10;2.37;;;0.80;1.00;;;;;;4994555;28;20216;-79
2021/12/10 01:12:27;;;;;;;7.67;2.23;;;0.80;1.00;;;;;;4994551;28;20177;-78
2021/12/10 01:15:22;;;;;;;3.77;2.00;;;0.90;1.00;;;;;;4994710;28;20177;-79
2021/12/10 01:23:50;;;;;;;5.47;2.63;;;0.80;1.00;;;;;;4994884;28;20220;-78
2021/12/10 01:29:24;;;;;;;7.17;2.57;;;0.90;1.00;;;;;;4994236;28;20201;-79
2021/12/10 01:31:51;;;;;;;5.57;3.00;;;0.80;1.00;;;;;;4995486;28;20553;-78
2021/12/10 01:34:17;;;;;;;4.30;2.20;;;0.90;1.00;;;;;;4994743;28;20172;-80
2021/12/10 01:36:43;;;;;;;5.43;2.53;;;0.90;1.00;;;;;;4995087;28;20185;-78
2021/12/10 01:39:14;;;;;;;6.47;2.70;;;0.90;1.00;;;;;;4992587;28;20197;-80
2021/12/10 01:41:42;;;;;;;5.67;2.50;;;0.70;1.00;;;;;;4995053;28;20197;-79
2021/12/10 01:44:15;;;;;;;5.27;2.37;;;0.50;1.00;;;;;;4995046;28;20197;-78
2021/12/10 01:46:48;;;;;;;7.10;2.47;;;0.30;1.00;;;;;;4995815;28;20271;-78
2021/12/10 01:49:14;;;;;;;3.60;2.40;;;0.20;15.70;;;;;;5033278;22;20306;-76
2021/12/10 01:51:42;;;;;;;4.23;2.50;;;0.10;73.90;;;;;;5012235;28;20292;-77
2021/12/10 01:54:13;;;;;;;7.70;3.00;;;0.10;99.90;;;;;;5013214;28;20180;-76
2021/12/10 01:56:41;;;;;;;6.07;2.57;;;0.00;99.90;;;;;;5013497;28;20188;-78
2021/12/10 01:59:11;;;;;;;8.10;2.40;;;0.00;99.90;;;;;;5019238;28;20185;-75
2021/12/10 02:01:45;;;;;;;4.30;2.40;;;0.00;99.90;;;;;;5013567;28;20386;-77
2021/12/10 02:04:14;;;;;;;6.97;2.80;;;-0.10;99.90;;;;;;5013665;28;20177;-75
2021/12/10 02:06:40;;;;;;;5.57;2.57;;;0.10;99.90;;;;;;5013208;28;20213;-75
2021/12/10 02:09:07;;;;;;;6.43;3.07;;;0.10;99.90;;;;;;5012874;28;20177;-75
2021/12/10 02:11:33;;;;;;;7.87;2.83;;;-0.10;99.90;;;;;;5012376;28;20692;-74
2021/12/10 02:13:59;;;;;;;3.57;2.30;;;0.00;99.90;;;;;;5013090;28;20173;-75
2021/12/10 02:16:25;;;;;;;6.03;2.70;;;0.00;99.90;;;;;;5012935;28;20180;-75
2021/12/10 02:18:51;;;;;;;5.13;2.40;;;0.00;99.90;;;;;;5013069;28;20181;-74
2021/12/10 02:21:23;;;;;;;6.00;2.40;;;-0.10;99.90;;;;;;5012360;28;20255;-74
2021/12/10 02:23:57;;;;;;;10.30;2.57;;;0.00;99.90;;;;;;5012671;28;20187;-75
2021/12/10 02:26:26;;;;;;;4.90;2.30;;;0.10;56.20;;;;;;5012748;28;20297;-75
2021/12/10 02:28:52;;;;;;;4.37;2.30;;;0.10;17.00;;;;;;5012549;28;20711;-76
2021/12/10 02:31:18;;;;;;;4.03;2.30;;;0.10;1.00;;;;;;5012275;28;20224;-76
2021/12/10 02:33:44;;;;;;;4.17;2.37;;;0.00;6.90;;;;;;5012789;28;20646;-74
2021/12/10 02:36:12;;;;;;;5.33;2.20;;;0.00;59.30;;;;;;5012554;28;20181;-73
2021/12/10 02:38:45;;;;;;;7.07;2.87;;;-0.20;71.30;;;;;;5012547;28;20176;-75
2021/12/10 02:41:12;;;;;;;4.73;2.10;;;-0.20;99.90;;;;;;5012004;28;20668;-76
2021/12/10 02:43:38;;;;;;;4.57;2.43;;;-0.10;99.90;;;;;;5012536;28;20264;-76
2021/12/10 02:46:04;;;;;;;5.27;2.20;;;-0.10;11.90;;;;;;5011025;28;20266;-75
2021/12/10 02:48:30;;;;;;;6.30;2.30;;;-0.10;28.90;;;;;;5012201;28;20231;-76
2021/12/10 02:50:56;;;;;;;4.37;2.03;;;-0.20;69.70;;;;;;5011293;28;20244;-75
2021/12/10 02:53:27;;;;;;;5.47;2.30;;;-0.20;99.90;;;;;;5012479;28;20251;-75
2021/12/10 02:55:53;;;;;;;4.07;2.40;;;-0.10;48.30;;;;;;5012110;28;20617;-75
2021/12/10 02:58:19;;;;;;;7.67;2.50;;;-0.10;39.40;;;;;;5012179;28;20187;-75
2021/12/10 03:00:50;;;;;;;7.23;3.07;;;-0.10;31.00;;;;;;5011673;28;20200;-74
2021/12/10 03:03:16;;;;;;;4.57;2.97;;;-0.10;38.70;;;;;;5012129;28;20199;-75
2021/12/10 03:05:42;;;;;;;4.87;2.73;;;-0.10;42.70;;;;;;5011771;28;20721;-75
2021/12/10 03:08:07;;;;;;;6.13;3.03;;;0.00;58.90;;;;;;5012434;28;20179;-75
2021/12/10 03:10:34;;;;;;;5.87;2.60;;;-0.10;72.40;;;;;;5011717;28;20203;-75
2021/12/10 03:13:00;;;;;;;6.27;2.60;;;-0.20;60.00;;;;;;5012244;28;20659;-75
2021/12/10 03:15:28;;;;;;;5.67;3.03;;;-0.10;36.70;;;;;;5012144;28;20490;-75
2021/12/10 03:17:55;;;;;;;7.20;3.10;;;-0.20;5.20;;;;;;5012197;28;20715;-75
2021/12/10 03:20:25;;;;;;;6.07;2.80;;;-0.20;34.90;;;;;;5011696;28;20204;-74
2021/12/10 03:22:52;;;;;;;8.53;3.10;;;-0.20;20.70;;;;;;5011578;28;20172;-75
2021/12/10 03:25:18;;;;;;;6.83;3.07;;;-0.30;10.60;;;;;;5012074;28;20538;-75
2021/12/10 03:27:44;;;;;;;5.03;2.97;;;-0.30;51.10;;;;;;5012010;28;20192;-74
2021/12/10 03:30:15;;;;;;;6.13;3.00;;;-0.20;73.80;;;;;;5011203;28;20198;-75
2021/12/10 03:32:40;;;;;;;5.97;2.97;;;-0.20;34.80;;;;;;5011857;28;20534;-75
2021/12/10 03:35:14;;;;;;;5.23;2.93;;;-0.40;70.30;;;;;;5012197;28;20187;-75
2021/12/10 03:37:45;;;;;;;4.93;2.80;;;-0.30;91.80;;;;;;5011751;28;20188;-75
2021/12/10 03:40:14;;;;;;;6.50;3.10;;;-0.30;66.90;;;;;;5011178;28;20227;-74
2021/12/10 03:42:40;;;;;;;5.07;2.90;;;-0.50;92.50;;;;;;5010096;28;20231;-75
2021/12/10 03:45:07;;;;;;;8.67;3.67;;;-0.60;99.90;;;;;;5011350;28;20653;-74
2021/12/10 03:47:33;;;;;;;5.70;2.83;;;-0.50;99.90;;;;;;5011585;28;20216;-75
2021/12/10 03:49:59;;;;;;;8.00;3.40;;;-0.60;99.90;;;;;;5010931;28;20755;-74
2021/12/10 03:52:25;;;;;;;6.60;3.30;;;-0.60;99.90;;;;;;5011713;28;20180;-76
2021/12/10 03:54:51;;;;;;;7.63;3.47;;;-0.50;99.90;;;;;;5011639;28;20177;-75
2021/12/10 03:57:18;;;;;;;11.73;4.13;;;-0.50;99.90;;;;;;5011386;28;20199;-76
2021/12/10 03:59:44;;;;;;;7.63;3.50;;;-0.60;99.90;;;;;;5010666;28;20192;-75
2021/12/10 04:02:10;;;;;;;6.67;3.43;;;-0.50;99.90;;;;;;5011912;28;20267;-75
2021/12/10 04:04:46;;;;;;;8.47;3.50;;;-0.60;99.90;;;;;;5015369;28;20556;-75
2021/12/10 04:07:22;;;;;;;6.17;3.57;;;-0.60;99.90;;;;;;5015067;28;20227;-75
2021/12/10 04:09:49;;;;;;;9.27;3.63;;;-0.60;99.90;;;;;;5015724;28;20196;-75
2021/12/10 04:12:17;;;;;;;8.97;3.73;;;-0.50;99.90;;;;;;5016197;28;20226;-74
2021/12/10 04:14:44;;;;;;;7.13;4.10;;;-0.40;99.90;;;;;;5015616;28;20238;-74
2021/12/10 04:17:10;;;;;;;11.90;3.50;;;-0.40;90.20;;;;;;5015461;28;20180;-75
2021/12/10 04:19:37;;;;;;;7.77;4.07;;;-0.40;87.40;;;;;;5014557;28;20211;-74
2021/12/10 04:22:05;;;;;;;8.53;3.90;;;-0.40;53.70;;;;;;5014976;28;20177;-74
2021/12/10 04:24:33;;;;;;;6.03;3.93;;;-0.50;43.10;;;;;;5014856;28;20344;-74
2021/12/10 04:27:01;;;;;;;7.60;3.90;;;-0.50;82.30;;;;;;5014580;28;20223;-75
2021/12/10 04:29:27;;;;;;;6.53;4.07;;;-0.50;99.00;;;;;;5014287;28;20181;-75
2021/12/10 04:31:54;;;;;;;8.17;4.43;;;-0.60;99.90;;;;;;5014942;28;20680;-75
2021/12/10 04:34:21;;;;;;;9.47;5.23;;;-0.60;99.90;;;;;;5014988;28;20172;-76
2021/12/10 04:36:48;;;;;;;8.00;5.20;;;-0.70;99.90;;;;;;5014732;28;20253;-75
2021/12/10 04:39:14;;;;;;;8.17;4.83;;;-0.70;99.90;;;;;;5014240;28;20180;-74
2021/12/10 04:41:40;;;;;;;11.17;5.30;;;-0.70;99.90;;;;;;5014628;28;20276;-75
2021/12/10 04:44:06;;;;;;;12.43;5.43;;;-0.90;99.90;;;;;;5014776;28;20234;-74
2021/12/10 04:46:31;;;;;;;12.10;5.43;;;-0.90;99.90;;;;;;5014496;28;20271;-76
2021/12/10 04:49:06;;;;;;;10.87;5.30;;;-1.00;99.90;;;;;;5014412;28;20195;-75
2021/12/10 04:51:37;;;;;;;8.03;5.57;;;-1.00;99.90;;;;;;5014039;28;20752;-75
2021/12/10 04:54:05;;;;;;;9.80;4.83;;;-1.00;99.90;;;;;;5014321;28;20259;-74
2021/12/10 04:56:31;;;;;;;9.37;5.20;;;-1.10;99.90;;;;;;5014316;28;20177;-75
2021/12/10 04:58:59;;;;;;;8.87;5.43;;;-1.10;99.90;;;;;;5001465;28;20181;-75
2021/12/10 05:01:25;;;;;;;8.93;5.67;;;-1.00;99.90;;;;;;4994438;28;20247;-75
2021/12/10 05:03:50;;;;;;;7.90;4.83;;;-1.00;99.90;;;;;;4994760;28;20239;-75
2021/12/10 05:06:16;;;;;;;9.73;5.20;;;-1.00;99.90;;;;;;4994458;28;20693;-75
2021/12/10 05:08:42;;;;;;;12.97;5.93;;;-1.00;99.90;;;;;;4994839;28;20264;-75
2021/12/10 05:11:09;;;;;;;9.13;5.30;;;-1.10;99.90;;;;;;4993972;28;20232;-75
2021/12/10 05:13:37;;;;;;;11.73;5.73;;;-1.00;99.90;;;;;;4994182;28;20177;-75
2021/12/10 05:16:04;;;;;;;9.97;5.60;;;-0.90;99.90;;;;;;5002186;28;20243;-75
2021/12/10 05:18:35;;;;;;;11.87;5.77;;;-0.90;99.90;;;;;;5004724;28;20181;-75
2021/12/10 05:21:02;;;;;;;12.33;6.03;;;-1.00;99.90;;;;;;5002918;28;20262;-75
2021/12/10 05:23:27;;;;;;;9.87;5.43;;;-1.10;99.90;;;;;;5002135;28;20234;-75
2021/12/10 05:25:53;;;;;;;9.43;5.07;;;-1.30;99.90;;;;;;5006941;28;20208;-75
2021/12/10 05:28:19;;;;;;;12.37;5.40;;;-1.40;99.90;;;;;;4999237;28;20319;-75
2021/12/10 05:30:47;;;;;;;10.80;6.83;;;-1.40;99.90;;;;;;4993605;28;20209;-75
2021/12/10 05:33:17;;;;;;;9.97;5.40;;;-1.40;99.90;;;;;;4994119;28;20185;-75
2021/12/10 05:35:46;;;;;;;11.80;5.73;;;-1.40;99.90;;;;;;4993870;28;20559;-75
2021/12/10 05:38:12;;;;;;;11.50;6.00;;;-1.50;99.90;;;;;;4994267;28;20271;-74
2021/12/10 05:40:38;;;;;;;8.97;5.80;;;-1.60;99.90;;;;;;4993596;28;20234;-74
2021/12/10 05:43:04;;;;;;;39.43;30.43;;;-1.60;99.90;;;;;;4993795;28;20182;-75
2021/12/10 05:45:31;;;;;;;13.10;10.53;;;-1.50;99.90;;;;;;4993870;28;20185;-74
2021/12/10 05:47:57;;;;;;;11.07;8.20;;;-1.50;99.90;;;;;;4993686;28;20208;-74
2021/12/10 05:50:25;;;;;;;15.03;7.60;;;-1.50;99.90;;;;;;4992951;28;20575;-75
2021/12/10 05:52:51;;;;;;;14.50;7.57;;;-1.40;99.90;;;;;;4992960;28;20236;-75
2021/12/10 05:55:18;;;;;;;20.03;17.60;;;-1.30;99.90;;;;;;4993824;28;20177;-75
2021/12/10 05:57:43;;;;;;;13.40;10.33;;;-1.20;99.90;;;;;;4993543;28;20326;-74
2021/12/10 06:00:14;;;;;;;11.43;6.00;;;-1.20;99.90;;;;;;4993704;28;20705;-74
2021/12/10 06:02:41;;;;;;;13.27;7.80;;;-1.40;99.90;;;;;;5013053;28;20678;-74
2021/12/10 06:05:08;;;;;;;12.43;7.77;;;-1.40;99.90;;;;;;5013168;28;20244;-75
2021/12/10 06:07:33;;;;;;;11.73;7.17;;;-1.40;99.90;;;;;;5013157;28;20212;-75
2021/12/10 06:09:59;;;;;;;11.77;6.40;;;-1.40;99.90;;;;;;5012251;28;20578;-75
2021/12/10 06:12:25;;;;;;;13.77;9.20;;;-1.30;99.90;;;;;;5012875;28;20237;-74
2021/12/10 06:14:50;;;;;;;11.90;7.00;;;-1.30;99.90;;;;;;5012915;28;20224;-76
2021/12/10 06:17:16;;;;;;;12.20;6.80;;;-1.30;99.90;;;;;;5013281;28;20207;-75
2021/12/10 06:19:41;;;;;;;13.67;6.57;;;-1.30;99.90;;;;;;5012121;28;20287;-75
2021/12/10 06:22:07;;;;;;;12.03;6.40;;;-1.40;99.90;;;;;;5012857;28;20179;-75
2021/12/10 06:24:33;;;;;;;14.80;6.53;;;-1.30;99.90;;;;;;5012470;28;20192;-76
2021/12/10 06:26:59;;;;;;;11.67;6.93;;;-1.20;99.90;;;;;;5012160;28;20236;-76
2021/12/10 06:29:26;;;;;;;13.33;7.27;;;-1.10;99.90;;;;;;5012083;28;20183;-75
2021/12/10 06:31:53;;;;;;;14.67;6.80;;;-1.10;99.90;;;;;;5012515;28;20184;-75
2021/12/10 06:34:20;;;;;;;13.40;6.40;;;-1.00;99.90;;;;;;5012518;28;20176;-75
2021/12/10 06:36:45;;;;;;;10.80;6.87;;;-0.90;99.90;;;;;;5012521;28;20668;-74
2021/12/10 06:39:11;;;;;;;12.83;7.53;;;-1.00;99.90;;;;;;5012261;28;20181;-75
2021/12/10 06:41:37;;;;;;;13.70;8.57;;;-1.10;99.90;;;;;;5012414;28;20700;-74
2021/12/10 06:44:04;;;;;;;12.97;9.07;;;-1.10;99.90;;;;;;5012372;28;20223;-75
2021/12/10 06:46:34;;;;;;;13.13;7.03;;;-1.30;99.90;;;;;;5012213;28;20250;-75
2021/12/10 06:49:00;;;;;;;12.93;6.23;;;-1.40;99.90;;;;;;5012265;28;20250;-74
2021/12/10 06:51:26;;;;;;;9.93;7.07;;;-1.50;99.90;;;;;;5011948;28;20204;-76
2021/12/10 06:53:51;;;;;;;14.30;7.37;;;-1.50;99.90;;;;;;5012748;28;20187;-75
2021/12/10 06:56:18;;;;;;;9.47;6.30;;;-1.50;99.90;;;;;;5012185;28;20181;-74
2021/12/10 06:58:44;;;;;;;9.17;6.67;;;-1.60;99.90;;;;;;5012036;28;20668;-75
2021/12/10 07:01:18;;;;;;;10.47;6.07;;;-1.60;99.90;;;;;;5010253;28;20226;-75
2021/12/10 07:03:45;;;;;;;12.83;6.97;;;-1.60;99.90;;;;;;5012536;28;20184;-75
2021/12/10 07:06:11;;;;;;;9.90;6.30;;;-1.60;99.90;;;;;;5011969;28;20207;-74
2021/12/10 07:08:39;;;;;;;12.73;6.17;;;-1.70;99.90;;;;;;5012133;28;20179;-75
2021/12/10 07:11:06;;;;;;;12.77;7.00;;;-1.80;99.90;;;;;;5011337;28;20211;-75
2021/12/10 07:13:35;;;;;;;10.30;5.73;;;-1.60;99.90;;;;;;5012426;28;20165;-75
2021/12/10 07:16:01;;;;;;;16.50;6.93;;;-1.50;99.90;;;;;;5012071;28;20177;-74
2021/12/10 07:18:27;;;;;;;15.03;7.20;;;-1.50;99.90;;;;;;5012051;28;20173;-75
2021/12/10 07:20:53;;;;;;;11.57;7.20;;;-1.40;99.90;;;;;;5017106;28;20202;-75
2021/12/10 07:23:21;;;;;;;11.97;7.80;;;-1.20;99.90;;;;;;5019245;28;20172;-75
2021/12/10 07:25:47;;;;;;;17.23;9.00;;;-0.90;99.90;;;;;;5011675;28;20258;-76
2021/12/10 07:28:13;;;;;;;14.00;8.10;;;-0.80;99.90;;;;;;5011415;28;20190;-75
2021/12/10 07:30:39;;;;;;;18.13;8.90;;;0.10;99.90;;;;;;5011289;28;20192;-76
2021/12/10 07:33:06;;;;;;;12.20;8.00;;;0.50;4.30;;;;;;5011609;28;20176;-75
2021/12/10 07:35:32;;;;;;;10.40;7.10;;;1.20;1.00;;;;;;5014106;28;20192;-75
2021/12/10 07:37:57;;;;;;;11.77;6.47;;;1.60;1.00;;;;;;5015417;28;20180;-75
2021/12/10 07:40:26;;;;;;;13.73;7.00;;;1.30;1.00;;;;;;5014514;28;20274;-75
2021/12/10 07:42:51;;;;;;;12.47;7.40;;;0.90;99.90;;;;;;5017893;28;20551;-75
2021/12/10 07:45:18;;;;;;;10.03;6.50;;;0.70;1.00;;;;;;5015596;28;20172;-75
2021/12/10 07:47:45;;;;;;;9.57;6.90;;;0.40;1.00;;;;;;5015250;28;20788;-75
2021/12/10 07:50:15;;;;;;;10.50;7.10;;;0.20;1.00;;;;;;5015576;28;20206;-76
2021/12/10 07:52:41;;;;;;;10.50;7.37;;;0.10;1.00;;;;;;5015477;28;20195;-75
2021/12/10 07:55:10;;;;;;;8.73;6.57;;;0.30;1.00;;;;;;5015302;28;20654;-75
2021/12/10 07:57:36;;;;;;;12.83;7.20;;;0.30;1.00;;;;;;5021692;28;20183;-75
2021/12/10 08:00:06;;;;;;;12.77;7.90;;;0.20;1.00;;;;;;5020695;28;20204;-74
2021/12/10 08:02:32;;;;;;;12.60;7.37;;;0.10;1.00;;;;;;5014411;28;20616;-75
2021/12/10 08:04:57;;;;;;;13.23;6.93;;;0.00;1.00;;;;;;5021186;28;20685;-75
2021/12/10 08:07:25;;;;;;;9.67;6.80;;;-0.20;1.00;;;;;;5015755;28;20539;-74
2021/12/10 08:09:51;;;;;;;16.10;6.50;;;-0.20;1.00;;;;;;5019408;28;20223;-75
2021/12/10 08:12:17;;;;;;;13.43;7.50;;;-0.10;1.00;;;;;;5014581;28;20253;-74
2021/12/10 08:14:45;;;;;;;11.87;7.03;;;-0.10;1.00;;;;;;5015368;28;20721;-73
2021/12/10 08:17:11;;;;;;;9.23;6.80;;;-0.10;1.00;;;;;;5015820;28;20595;-75
2021/12/10 08:19:36;;;;;;;11.93;7.60;;;-0.10;1.00;;;;;;5017539;28;20180;-74
2021/12/10 08:22:02;;;;;;;12.53;7.00;;;0.00;1.00;;;;;;5015856;28;20267;-74
2021/12/10 08:24:28;;;;;;;12.73;7.40;;;0.00;1.00;;;;;;5014487;28;20177;-75
2021/12/10 08:26:54;;;;;;;11.73;7.30;;;0.10;4.90;;;;;;5015109;28;20307;-74
2021/12/10 08:29:20;;;;;;;10.50;7.40;;;0.20;14.90;;;;;;5014036;28;20660;-75
2021/12/10 08:31:47;;;;;;;11.40;6.77;;;0.40;1.00;;;;;;5014791;28;20228;-75
2021/12/10 08:34:12;;;;;;;9.90;6.60;;;0.40;1.00;;;;;;5014821;28;20788;-76
2021/12/10 08:36:38;;;;;;;12.57;7.17;;;0.40;1.00;;;;;;5014745;28;20672;-75
2021/12/10 08:39:06;;;;;;;10.10;6.73;;;0.40;1.00;;;;;;5014683;28;20177;-76
2021/12/10 08:41:34;;;;;;;13.00;7.10;;;0.50;1.00;;;;;;5014256;28;20657;-76
2021/12/10 08:44:00;;;;;;;14.57;9.23;;;0.50;1.00;;;;;;5014704;28;20185;-75
2021/12/10 08:46:27;;;;;;;10.87;7.10;;;0.50;1.00;;;;;;5014576;28;20347;-76
2021/12/10 08:48:53;;;;;;;11.97;6.77;;;0.50;1.00;;;;;;5013959;28;20710;-75
2021/12/10 08:51:26;;;;;;;10.70;6.97;;;0.50;1.00;;;;;;5013645;28;20204;-75
2021/12/10 08:53:52;;;;;;;11.30;6.63;;;0.30;1.00;;;;;;5014791;28;20181;-75
2021/12/10 08:56:18;;;;;;;12.70;6.80;;;0.40;1.00;;;;;;5014568;28;20180;-76
2021/12/10 08:58:45;;;;;;;15.27;7.80;;;0.20;1.00;;;;;;5014287;28;20252;-76
2021/12/10 09:01:17;;;;;;;13.90;7.97;;;0.40;1.00;;;;;;5013276;28;20212;-77
2021/12/10 09:03:46;;;;;;;11.47;7.00;;;0.40;1.00;;;;;;5014258;28;20180;-76
2021/12/10 09:06:12;;;;;;;16.03;7.70;;;0.20;1.00;;;;;;5014068;28;20299;-74
2021/12/10 09:08:39;;;;;;;15.13;7.70;;;0.50;10.10;;;;;;5014123;28;20177;-75
2021/12/10 09:11:05;;;;;;;13.17;7.93;;;0.60;1.00;;;;;;5011899;28;20200;-76
2021/12/10 09:13:31;;;;;;;20.33;11.97;;;0.60;1.00;;;;;;5013962;28;20176;-76
2021/12/10 09:16:01;;;;;;;14.00;9.63;;;0.60;1.00;;;;;;5013898;28;20244;-78
2021/12/10 09:18:28;;;;;;;13.50;8.40;;;0.50;1.00;;;;;;5014055;28;20219;-76
2021/12/10 09:20:58;;;;;;;18.37;8.13;;;0.50;1.00;;;;;;5012928;28;20609;-76
2021/12/10 09:23:25;;;;;;;15.60;9.77;;;0.50;3.80;;;;;;5013858;28;20227;-75
2021/12/10 09:25:55;;;;;;;14.47;9.93;;;0.70;1.00;;;;;;5019035;28;20174;-75
2021/12/10 09:28:20;;;;;;;16.07;9.50;;;0.80;1.00;;;;;;5011234;28;20250;-75
2021/12/10 09:30:50;;;;;;;14.77;9.00;;;0.80;1.00;;;;;;5012042;28;20688;-76
2021/12/10 09:33:16;;;;;;;11.50;8.50;;;0.90;1.00;;;;;;5012401;28;20180;-75
2021/12/10 09:35:42;;;;;;;16.47;9.03;;;1.00;1.00;;;;;;5013106;28;20188;-75
2021/12/10 09:38:08;;;;;;;13.63;8.80;;;1.00;1.00;;;;;;5011141;28;20177;-76
2021/12/10 09:40:38;;;;;;;15.47;9.00;;;1.00;1.00;;;;;;5012778;28;20228;-76
2021/12/10 09:43:05;;;;;;;13.47;8.37;;;1.10;1.00;;;;;;5010372;28;20548;-75
2021/12/10 09:45:33;;;;;;;15.27;8.27;;;1.10;1.00;;;;;;5012899;28;20195;-75
2021/12/10 09:48:02;;;;;;;11.43;7.77;;;1.30;1.00;;;;;;5011849;28;20287;-73
2021/12/10 09:50:31;;;;;;;11.47;7.70;;;1.40;1.00;;;;;;5012689;28;20219;-75
2021/12/10 09:52:59;;;;;;;12.37;8.07;;;1.40;1.00;;;;;;5013264;28;20211;-76
2021/12/10 09:55:27;;;;;;;15.03;8.47;;;1.50;1.00;;;;;;5013139;28;20703;-76
2021/12/10 09:57:54;;;;;;;15.60;9.40;;;1.50;1.00;;;;;;5013094;28;20181;-74
2021/12/10 10:00:37;;;;;;;18.17;9.43;;;1.40;1.00;;;;;;5014297;28;20294;-75
2021/12/10 10:03:05;;;;;;;15.33;8.50;;;1.40;1.00;;;;;;5002852;28;20180;-75
2021/12/10 10:05:31;;;;;;;12.47;7.90;;;1.30;1.00;;;;;;5024055;28;20180;-76
2021/12/10 10:08:00;;;;;;;17.67;9.07;;;1.30;1.00;;;;;;5019653;28;20219;-74
2021/12/10 10:10:28;;;;;;;15.00;9.03;;;1.40;1.00;;;;;;5014604;28;20208;-74
2021/12/10 10:12:55;;;;;;;14.50;9.57;;;1.60;1.00;;;;;;5019601;28;20191;-75
2021/12/10 10:15:28;;;;;;;13.17;8.23;;;1.70;1.00;;;;;;5021971;28;20194;-74
2021/12/10 10:17:55;;;;;;;15.47;9.37;;;1.60;1.00;;;;;;5015621;28;20183;-76
2021/12/10 10:20:22;;;;;;;11.27;7.47;;;1.60;1.00;;;;;;5011732;28;20259;-76
2021/12/10 10:22:48;;;;;;;12.17;7.83;;;1.50;1.00;;;;;;5012824;28;20173;-75
2021/12/10 10:25:18;;;;;;;11.83;7.40;;;1.70;99.90;;;;;;5012656;28;20188;-75
2021/12/10 10:27:45;;;;;;;10.17;5.57;;;1.90;4.90;;;;;;5012905;28;20640;-76
2021/12/10 10:30:34;;;;;;;9.37;5.87;;;2.10;1.00;;;;;;5010686;28;20196;-75
2021/12/10 10:33:06;;;;;;;8.40;5.63;;;2.20;1.00;;;;;;5012290;28;20201;-75
2021/12/10 10:35:41;;;;;;;9.33;5.33;;;2.20;1.00;;;;;;5012466;28;20258;-75
2021/12/10 10:38:09;;;;;;;9.47;5.00;;;2.30;1.00;;;;;;5012482;28;20234;-75
2021/12/10 10:40:38;;;;;;;7.97;4.73;;;2.40;1.00;;;;;;5012144;28;20219;-75
2021/12/10 10:43:04;;;;;;;9.83;4.47;;;2.50;99.90;;;;;;5012925;28;20551;-75
2021/12/10 10:45:34;;;;;;;10.03;4.90;;;2.70;99.90;;;;;;5012306;28;20283;-75
2021/12/10 10:48:00;;;;;;;9.90;5.00;;;2.70;99.90;;;;;;5012102;28;20274;-75
2021/12/10 10:50:33;;;;;;;6.97;4.30;;;2.60;1.00;;;;;;5011933;28;20204;-75
2021/12/10 10:53:07;;;;;;;11.30;5.40;;;2.70;1.00;;;;;;5012566;28;20183;-75
2021/12/10 10:55:37;;;;;;;9.03;4.70;;;2.70;99.90;;;;;;5012356;28;20680;-75
2021/12/10 10:58:13;;;;;;;8.57;4.83;;;2.80;99.90;;;;;;5012441;28;20697;-76
2021/12/10 11:01:09;;;;;;;8.27;5.17;;;2.90;1.00;;;;;;5011604;28;20227;-75
2021/12/10 11:03:44;;;;;;;12.03;6.33;;;3.00;1.00;;;;;;5012338;28;20211;-76
2021/12/10 11:06:20;;;;;;;5.73;4.13;;;3.00;1.00;;;;;;5012147;28;20212;-75
2021/12/10 11:08:52;;;;;;;13.43;7.93;;;2.90;1.00;;;;;;5012193;28;20172;-75
2021/12/10 11:11:24;;;;;;;15.57;8.27;;;2.70;1.00;;;;;;5015560;28;20187;-75
2021/12/10 11:14:08;;;;;;;12.13;7.63;;;2.40;1.00;;;;;;5031760;28;20710;-75
2021/12/10 11:16:37;;;;;;;14.30;9.20;;;2.20;1.00;;;;;;5031666;28;20180;-75
2021/12/10 11:19:10;;;;;;;13.60;7.70;;;2.20;1.00;;;;;;5031210;28;20172;-75
2021/12/10 11:21:49;;;;;;;12.93;6.67;;;2.30;1.00;;;;;;5022829;28;20312;-76
2021/12/10 11:24:26;;;;;;;11.97;6.53;;;2.30;99.90;;;;;;5002564;28;20228;-75
2021/12/10 11:27:05;;;;;;;14.87;7.00;;;2.50;1.00;;;;;;4999945;28;20308;-76
2021/12/10 11:29:47;;;;;;;14.43;6.80;;;2.50;99.90;;;;;;5001178;28;20231;-73
2021/12/10 11:32:26;;;;;;;10.97;7.40;;;2.50;1.00;;;;;;5000903;28;20246;-74
2021/12/10 11:35:16;;;;;;;17.10;7.27;;;2.50;1.00;;;;;;5002141;28;20193;-74
2021/12/10 11:37:58;;;;;;;12.40;6.67;;;2.40;99.90;;;;;;5000828;28;20219;-76
2021/12/10 11:40:38;;;;;;;13.63;6.33;;;2.50;1.00;;;;;;4991378;28;20197;-75
2021/12/10 11:46:03;;;;;;;7.97;5.30;;;2.50;1.00;;;;;;4992104;28;20634;-76
2021/12/10 11:48:30;;;;;;;3.30;2.60;;;2.30;99.90;;;;;;4991600;28;20224;-76
2021/12/10 11:51:05;;;;;;;2.33;1.87;;;2.40;1.00;;;;;;4991560;28;20266;-77
2021/12/10 11:53:45;;;;;;;2.67;2.10;;;2.30;1.00;;;;;;4992015;28;20272;-76
2021/12/10 11:56:25;;;;;;;2.23;1.93;;;2.20;1.00;;;;;;4992463;28;20204;-76
2021/12/10 11:59:08;;;;;;;3.93;1.77;;;1.90;1.00;;;;;;4992433;28;20192;-76
2021/12/10 12:01:44;;;;;;;3.03;1.90;;;1.50;1.00;;;;;;4991932;28;20285;-76
2021/12/10 12:04:47;;;;;;;2.70;1.93;;;1.10;1.00;;;;;;4992240;28;20646;-76
2021/12/10 12:07:20;;;;;;;3.50;1.90;;;1.00;25.70;;;;;;4985165;28;20216;-76
2021/12/10 12:10:12;;;;;;;4.27;2.10;;;0.80;99.90;;;;;;4991650;28;20209;-76
2021/12/10 12:12:44;;;;;;;3.63;1.97;;;0.70;99.90;;;;;;4992063;28;20181;-75
2021/12/10 12:15:47;;;;;;;2.17;1.53;;;0.80;99.90;;;;;;4992165;28;20188;-76
2021/12/10 12:18:38;;;;;;;2.23;2.00;;;0.70;99.90;;;;;;4998585;28;20187;-76
2021/12/10 12:27:09;;;;;;;3.83;2.10;;;0.70;99.90;;;;;;5015091;28;20223;-76
2021/12/10 12:29:56;;;;;;;2.53;1.97;;;0.60;99.90;;;;;;5014269;28;20238;-76
2021/12/10 12:32:37;;;;;;;3.13;1.97;;;0.60;99.90;;;;;;5019757;28;20258;-76
2021/12/10 12:35:19;;;;;;;4.33;2.20;;;0.60;99.90;;;;;;5021348;28;20176;-74
2021/12/10 12:37:45;;;;;;;4.30;2.60;;;0.50;99.90;;;;;;5021785;28;20177;-76
2021/12/10 12:40:12;;;;;;;5.73;3.07;;;0.50;99.90;;;;;;5024121;28;20557;-76
2021/12/10 12:42:44;;;;;;;4.07;2.60;;;0.70;99.90;;;;;;5025569;28;20179;-76
2021/12/10 12:45:16;;;;;;;4.70;2.60;;;0.60;99.90;;;;;;5025270;28;20169;-76
2021/12/10 12:47:48;;;;;;;3.33;2.50;;;0.70;99.90;;;;;;5020655;28;20636;-77
2021/12/10 12:50:23;;;;;;;8.77;3.00;;;0.60;99.90;;;;;;5021273;28;20189;-77
2021/12/10 12:52:54;;;;;;;4.73;3.07;;;0.70;99.90;;;;;;5014852;28;20204;-76
2021/12/10 12:55:36;;;;;;;5.03;3.10;;;0.70;99.90;;;;;;5015159;28;20234;-76
2021/12/10 12:58:11;;;;;;;5.73;2.63;;;0.60;99.90;;;;;;5015436;28;20180;-76
2021/12/10 13:01:02;;;;;;;6.37;3.37;;;0.70;99.90;;;;;;5014477;28;20208;-77
2021/12/10 13:03:37;;;;;;;3.50;3.07;;;0.80;99.90;;;;;;5014254;28;20188;-76
2021/12/10 13:06:10;;;;;;;6.10;3.43;;;0.80;99.90;;;;;;5014342;28;20258;-76
2021/12/10 13:08:38;;;;;;;5.83;3.33;;;1.00;99.90;;;;;;5014194;28;20642;-77
2021/12/10 13:11:19;;;;;;;7.93;3.57;;;0.90;99.90;;;;;;5013306;28;20684;-76
2021/12/10 13:13:52;;;;;;;6.13;3.40;;;0.90;99.90;;;;;;5014604;28;20172;-76
2021/12/10 13:16:36;;;;;;;9.57;3.07;;;1.00;99.90;;;;;;5014114;28;20181;-76
2021/12/10 13:19:03;;;;;;;5.60;3.43;;;1.00;99.90;;;;;;5014135;28;20208;-77
2021/12/10 13:21:29;;;;;;;4.50;2.93;;;0.90;99.90;;;;;;5013686;28;20200;-76